sensor_id;sensor_type;location;lat;lon;timestamp;pressure;altitude;pressure_sealevel;temperature;humidity
26697;BME280;14312;52.614;13.496;2023-02-23T00:00:08;100783.34;;;8.00;68.63
26697;BME280;14312;52.614;13.496;2023-02-23T00:03:07;100774.78;;;7.98;69.08
26697;BME280;14312;52.614;13.496;2023-02-23T00:05:53;100767.84;;;7.97;68.99
26697;BME280;14312;52.614;13.496;2023-02-23T00:08:39;100775.22;;;7.95;68.82
26697;BME280;14312;52.614;13.496;2023-02-23T00:11:26;100777.88;;;7.95;69.08
26697;BME280;14312;52.614;13.496;2023-02-23T00:14:12;100775.22;;;7.95;68.87
26697;BME280;14312;52.614;13.496;2023-02-23T00:16:59;100771.97;;;7.93;69.17
26697;BME280;14312;52.614;13.496;2023-02-23T00:19:46;100777.28;;;7.93;68.96
26697;BME280;14312;52.614;13.496;2023-02-23T00:22:33;100775.66;;;7.92;69.24
26697;BME280;14312;52.614;13.496;2023-02-23T00:25:19;100772.41;;;7.90;68.95
26697;BME280;14312;52.614;13.496;2023-02-23T00:28:05;100756.47;;;7.90;69.02
26697;BME280;14312;52.614;13.496;2023-02-23T00:30:52;100768.72;;;7.91;68.90
26697;BME280;14312;52.614;13.496;2023-02-23T00:33:38;100760.97;;;7.90;69.12
26697;BME280;14312;52.614;13.496;2023-02-23T00:36:28;100761.78;;;7.90;68.93
26697;BME280;14312;52.614;13.496;2023-02-23T00:39:14;100768.72;;;7.91;68.84
26697;BME280;14312;52.614;13.496;2023-02-23T00:42:06;100763.41;;;7.91;69.14
26697;BME280;14312;52.614;13.496;2023-02-23T00:44:52;100768.72;;;7.91;69.02
26697;BME280;14312;52.614;13.496;2023-02-23T00:47:43;100769.75;;;7.90;69.01
26697;BME280;14312;52.614;13.496;2023-02-23T00:50:29;100764.44;;;7.90;69.11
26697;BME280;14312;52.614;13.496;2023-02-23T00:53:15;100771.38;;;7.91;68.98
26697;BME280;14312;52.614;13.496;2023-02-23T00:56:05;100765.47;;;7.89;69.08
26697;BME280;14312;52.614;13.496;2023-02-23T00:58:51;100762.81;;;7.89;68.90
26697;BME280;14312;52.614;13.496;2023-02-23T01:01:39;100769.16;;;7.88;68.68
26697;BME280;14312;52.614;13.496;2023-02-23T01:04:26;100755.31;;;7.86;68.73
26697;BME280;14312;52.614;13.496;2023-02-23T01:07:12;100757.34;;;7.84;69.12
26697;BME280;14312;52.614;13.496;2023-02-23T01:09:58;100756.53;;;7.83;68.78
26697;BME280;14312;52.614;13.496;2023-02-23T01:15:40;100750.88;;;7.80;68.97
26697;BME280;14312;52.614;13.496;2023-02-23T01:18:27;100746.81;;;7.77;68.78
26697;BME280;14312;52.614;13.496;2023-02-23T01:24:00;100745.41;;;7.75;68.67
26697;BME280;14312;52.614;13.496;2023-02-23T01:26:46;100746.44;;;7.74;68.95
26697;BME280;14312;52.614;13.496;2023-02-23T01:29:32;100744.81;;;7.73;69.14
26697;BME280;14312;52.614;13.496;2023-02-23T01:32:19;100739.53;;;7.73;68.89
26697;BME280;14312;52.614;13.496;2023-02-23T01:35:07;100743.19;;;7.72;69.00
26697;BME280;14312;52.614;13.496;2023-02-23T01:37:53;100737.09;;;7.71;68.95
26697;BME280;14312;52.614;13.496;2023-02-23T01:40:41;100736.47;;;7.69;68.82
26697;BME280;14312;52.614;13.496;2023-02-23T01:43:27;100734.84;;;7.68;68.65
26697;BME280;14312;52.614;13.496;2023-02-23T01:46:13;100729.78;;;7.67;68.92
26697;BME280;14312;52.614;13.496;2023-02-23T01:49:00;100731.84;;;7.65;68.66
26697;BME280;14312;52.614;13.496;2023-02-23T01:52:03;100733.88;;;7.63;68.93
26697;BME280;14312;52.614;13.496;2023-02-23T01:54:52;100736.75;;;7.61;68.96
26697;BME280;14312;52.614;13.496;2023-02-23T01:57:40;100729.81;;;7.60;68.90
26697;BME280;14312;52.614;13.496;2023-02-23T02:00:27;100731.09;;;7.58;68.94
26697;BME280;14312;52.614;13.496;2023-02-23T02:03:23;100722.31;;;7.57;69.08
26697;BME280;14312;52.614;13.496;2023-02-23T02:06:13;100727.84;;;7.56;69.16
26697;BME280;14312;52.614;13.496;2023-02-23T02:09:04;100715.03;;;7.53;69.01
26697;BME280;14312;52.614;13.496;2023-02-23T02:11:52;100710.75;;;7.52;69.15
26697;BME280;14312;52.614;13.496;2023-02-23T02:14:38;100705.88;;;7.48;68.96
26697;BME280;14312;52.614;13.496;2023-02-23T02:17:42;100706.91;;;7.47;68.95
26697;BME280;14312;52.614;13.496;2023-02-23T02:26:57;100698.19;;;7.40;68.93
26697;BME280;14312;52.614;13.496;2023-02-23T02:39:55;100680.34;;;7.29;69.05
26697;BME280;14312;52.614;13.496;2023-02-23T02:43:14;100684.25;;;7.27;68.81
26697;BME280;14312;52.614;13.496;2023-02-23T02:46:17;100685.72;;;7.23;69.16
26697;BME280;14312;52.614;13.496;2023-02-23T02:49:26;100685.94;;;7.21;68.90
26697;BME280;14312;52.614;13.496;2023-02-23T11:29:19;100594.63;;;10.01;80.41
26697;BME280;14312;52.614;13.496;2023-02-23T11:32:15;100596.72;;;10.56;79.47
26697;BME280;14312;52.614;13.496;2023-02-23T11:35:26;100582.66;;;11.27;77.57
26697;BME280;14312;52.614;13.496;2023-02-23T11:41:22;100583.56;;;12.52;75.37
26697;BME280;14312;52.614;13.496;2023-02-23T11:44:19;100566.28;;;12.97;73.51
26697;BME280;14312;52.614;13.496;2023-02-23T11:47:14;100574.59;;;13.37;71.97
26697;BME280;14312;52.614;13.496;2023-02-23T11:50:02;100567.78;;;13.66;71.70
26697;BME280;14312;52.614;13.496;2023-02-23T11:53:16;100565.47;;;13.95;70.95
26697;BME280;14312;52.614;13.496;2023-02-23T11:56:05;100563.38;;;14.18;70.91
26697;BME280;14312;52.614;13.496;2023-02-23T11:59:15;100557.81;;;14.44;69.32
26697;BME280;14312;52.614;13.496;2023-02-23T12:02:28;100558.34;;;14.72;69.80
26697;BME280;14312;52.614;13.496;2023-02-23T12:05:22;100551.91;;;14.98;68.51
26697;BME280;14312;52.614;13.496;2023-02-23T12:08:15;100550.78;;;15.14;67.66
26697;BME280;14312;52.614;13.496;2023-02-23T12:11:17;100543.25;;;15.26;67.04
26697;BME280;14312;52.614;13.496;2023-02-23T12:14:20;100546.97;;;15.36;66.81
26697;BME280;14312;52.614;13.496;2023-02-23T12:17:24;100538.34;;;15.44;66.73
26697;BME280;14312;52.614;13.496;2023-02-23T12:20:17;100540.50;;;15.47;66.48
26697;BME280;14312;52.614;13.496;2023-02-23T12:23:09;100532.97;;;15.54;66.76
26697;BME280;14312;52.614;13.496;2023-02-23T12:26:15;100532.41;;;15.62;66.46
26697;BME280;14312;52.614;13.496;2023-02-23T12:29:14;100526.75;;;15.63;65.79
26697;BME280;14312;52.614;13.496;2023-02-23T12:32:17;100524.84;;;15.69;65.83
26697;BME280;14312;52.614;13.496;2023-02-23T12:35:15;100531.28;;;15.73;64.41
26697;BME280;14312;52.614;13.496;2023-02-23T12:41:35;100525.81;;;15.88;64.08
26697;BME280;14312;52.614;13.496;2023-02-23T12:44:41;100516.63;;;15.94;64.60
26697;BME280;14312;52.614;13.496;2023-02-23T12:47:52;100514.50;;;15.96;63.19
26697;BME280;14312;52.614;13.496;2023-02-23T12:50:51;100519.06;;;15.96;63.28
26697;BME280;14312;52.614;13.496;2023-02-23T12:53:43;100516.16;;;15.87;62.44
26697;BME280;14312;52.614;13.496;2023-02-23T13:02:28;100517.75;;;15.88;63.09
26697;BME280;14312;52.614;13.496;2023-02-23T13:05:31;100513.41;;;15.92;62.85
26697;BME280;14312;52.614;13.496;2023-02-23T13:12:22;100510.63;;;16.08;62.89
26697;BME280;14312;52.614;13.496;2023-02-23T13:15:19;100498.75;;;16.14;62.82
26697;BME280;14312;52.614;13.496;2023-02-23T13:18:33;100499.84;;;16.18;62.10
26697;BME280;14312;52.614;13.496;2023-02-23T13:21:35;100497.19;;;16.13;62.36
26697;BME280;14312;52.614;13.496;2023-02-23T13:24:35;100490.22;;;16.06;62.20
26697;BME280;14312;52.614;13.496;2023-02-23T13:27:26;100490.25;;;16.01;62.82
26697;BME280;14312;52.614;13.496;2023-02-23T13:30:15;100489.22;;;15.97;63.21
26697;BME280;14312;52.614;13.496;2023-02-23T13:33:11;100491.91;;;15.92;62.91
26697;BME280;14312;52.614;13.496;2023-02-23T13:36:01;100490.88;;;15.88;63.52
26697;BME280;14312;52.614;13.496;2023-02-23T13:39:12;100493.03;;;15.86;62.90
26697;BME280;14312;52.614;13.496;2023-02-23T13:45:29;100502.25;;;15.75;63.36
26697;BME280;14312;52.614;13.496;2023-02-23T13:48:48;100499.03;;;15.73;62.92
26697;BME280;14312;52.614;13.496;2023-02-23T13:51:40;100499.06;;;15.68;63.23
26697;BME280;14312;52.614;13.496;2023-02-23T13:54:32;100496.91;;;15.65;62.89
26697;BME280;14312;52.614;13.496;2023-02-23T13:57:21;100494.81;;;15.57;62.51
26697;BME280;14312;52.614;13.496;2023-02-23T14:00:18;100495.09;;;15.45;62.73
26697;BME280;14312;52.614;13.496;2023-02-23T14:03:06;100495.13;;;15.35;62.99
26697;BME280;14312;52.614;13.496;2023-02-23T14:05:56;100495.72;;;15.27;63.11
26697;BME280;14312;52.614;13.496;2023-02-23T14:08:50;100504.06;;;15.15;62.98
26697;BME280;14312;52.614;13.496;2023-02-23T14:11:40;100503.31;;;15.05;63.57
26697;BME280;14312;52.614;13.496;2023-02-23T14:23:16;100508.44;;;14.71;63.49
26697;BME280;14312;52.614;13.496;2023-02-23T14:29:25;100498.84;;;14.55;64.12
26697;BME280;14312;52.614;13.496;2023-02-23T14:34:59;100512.22;;;14.39;64.48
26697;BME280;14312;52.614;13.496;2023-02-23T14:37:57;100518.09;;;14.31;64.32
26697;BME280;14312;52.614;13.496;2023-02-23T14:40:44;100513.25;;;14.23;64.72
26697;BME280;14312;52.614;13.496;2023-02-23T14:46:28;100507.63;;;14.09;64.89
26697;BME280;14312;52.614;13.496;2023-02-23T14:49:18;100509.50;;;14.04;64.93
26697;BME280;14312;52.614;13.496;2023-02-23T14:52:26;100508.41;;;14.00;65.23
26697;BME280;14312;52.614;13.496;2023-02-23T14:55:23;100511.06;;;13.95;65.16
26697;BME280;14312;52.614;13.496;2023-02-23T14:58:27;100514.00;;;13.93;65.43
26697;BME280;14312;52.614;13.496;2023-02-23T15:01:31;100509.75;;;13.92;65.41
26697;BME280;14312;52.614;13.496;2023-02-23T15:04:25;100516.44;;;13.90;65.51
26697;BME280;14312;52.614;13.496;2023-02-23T15:07:37;100508.91;;;13.87;65.45
26697;BME280;14312;52.614;13.496;2023-02-23T15:10:31;100506.22;;;13.82;65.67
26697;BME280;14312;52.614;13.496;2023-02-23T15:16:06;100509.16;;;13.80;66.20
26697;BME280;14312;52.614;13.496;2023-02-23T15:18:53;100504.06;;;13.79;66.21
26697;BME280;14312;52.614;13.496;2023-02-23T15:21:39;100506.75;;;13.79;66.26
26697;BME280;14312;52.614;13.496;2023-02-23T15:24:46;100492.28;;;13.80;66.08
26697;BME280;14312;52.614;13.496;2023-02-23T15:27:39;100491.78;;;13.78;66.24
26697;BME280;14312;52.614;13.496;2023-02-23T15:30:30;100492.84;;;13.77;66.21
26697;BME280;14312;52.614;13.496;2023-02-23T15:33:18;100488.00;;;13.73;66.25
26697;BME280;14312;52.614;13.496;2023-02-23T15:36:24;100494.16;;;13.74;66.27
26697;BME280;14312;52.614;13.496;2023-02-23T15:39:16;100495.47;;;13.71;66.32
26697;BME280;14312;52.614;13.496;2023-02-23T15:42:04;100499.25;;;13.70;66.38
26697;BME280;14312;52.614;13.496;2023-02-23T15:44:57;100490.13;;;13.66;66.44
26697;BME280;14312;52.614;13.496;2023-02-23T15:47:45;100498.69;;;13.63;66.42
26697;BME280;14312;52.614;13.496;2023-02-23T15:50:33;100493.84;;;13.60;66.58
26697;BME280;14312;52.614;13.496;2023-02-23T15:53:37;100487.44;;;13.56;66.64
26697;BME280;14312;52.614;13.496;2023-02-23T15:56:27;100489.56;;;13.54;66.76
26697;BME280;14312;52.614;13.496;2023-02-23T15:59:21;100487.94;;;13.48;66.80
26697;BME280;14312;52.614;13.496;2023-02-23T16:02:13;100487.38;;;13.46;66.81
26697;BME280;14312;52.614;13.496;2023-02-23T16:05:22;100493.25;;;13.43;66.87
26697;BME280;14312;52.614;13.496;2023-02-23T16:08:22;100492.16;;;13.39;67.03
26697;BME280;14312;52.614;13.496;2023-02-23T16:11:09;100483.31;;;13.33;67.02
26697;BME280;14312;52.614;13.496;2023-02-23T16:13:57;100483.03;;;13.30;67.01
26697;BME280;14312;52.614;13.496;2023-02-23T16:16:44;100491.03;;;13.25;67.15
26697;BME280;14312;52.614;13.496;2023-02-23T16:19:34;100486.19;;;13.22;67.28
26697;BME280;14312;52.614;13.496;2023-02-23T16:22:26;100485.13;;;13.18;67.17
26697;BME280;14312;52.614;13.496;2023-02-23T16:25:15;100485.63;;;13.15;67.40
26697;BME280;14312;52.614;13.496;2023-02-23T16:28:08;100491.47;;;13.12;67.46
26697;BME280;14312;52.614;13.496;2023-02-23T16:31:06;100487.44;;;13.09;67.50
26697;BME280;14312;52.614;13.496;2023-02-23T16:33:56;100487.19;;;13.06;67.62
26697;BME280;14312;52.614;13.496;2023-02-23T16:36:48;100484.44;;;13.01;67.59
26697;BME280;14312;52.614;13.496;2023-02-23T16:39:35;100483.94;;;12.99;67.50
26697;BME280;14312;52.614;13.496;2023-02-23T16:42:30;100482.81;;;12.94;67.74
26697;BME280;14312;52.614;13.496;2023-02-23T16:45:16;100489.19;;;12.88;67.62
26697;BME280;14312;52.614;13.496;2023-02-23T16:48:03;100483.84;;;12.83;67.68
26697;BME280;14312;52.614;13.496;2023-02-23T16:50:49;100489.16;;;12.78;67.79
26697;BME280;14312;52.614;13.496;2023-02-23T16:53:35;100493.38;;;12.74;67.83
26697;BME280;14312;52.614;13.496;2023-02-23T16:56:22;100483.72;;;12.68;67.89
26697;BME280;14312;52.614;13.496;2023-02-23T16:59:13;100495.47;;;12.62;68.17
26697;BME280;14312;52.614;13.496;2023-02-23T17:02:00;100502.34;;;12.58;68.21
26697;BME280;14312;52.614;13.496;2023-02-23T17:04:46;100506.63;;;12.54;68.32
26697;BME280;14312;52.614;13.496;2023-02-23T17:07:36;100499.38;;;12.49;68.41
26697;BME280;14312;52.614;13.496;2023-02-23T17:10:25;100495.84;;;12.44;68.42
26697;BME280;14312;52.614;13.496;2023-02-23T17:13:18;100488.59;;;12.39;68.63
26697;BME280;14312;52.614;13.496;2023-02-23T17:16:06;100502.72;;;12.35;68.74
26697;BME280;14312;52.614;13.496;2023-02-23T17:18:53;100492.53;;;12.32;68.64
26697;BME280;14312;52.614;13.496;2023-02-23T17:21:39;100502.94;;;12.28;69.02
26697;BME280;14312;52.614;13.496;2023-02-23T17:24:25;100501.56;;;12.26;69.00
26697;BME280;14312;52.614;13.496;2023-02-23T17:27:11;100495.66;;;12.24;69.14
26697;BME280;14312;52.614;13.496;2023-02-23T17:29:57;100499.13;;;12.19;69.15
26697;BME280;14312;52.614;13.496;2023-02-23T17:32:43;100500.41;;;12.16;69.22
26697;BME280;14312;52.614;13.496;2023-02-23T17:35:29;100499.06;;;12.14;69.37
26697;BME280;14312;52.614;13.496;2023-02-23T17:38:22;100501.44;;;12.10;69.49
26697;BME280;14312;52.614;13.496;2023-02-23T17:41:16;100498.19;;;12.08;69.73
26697;BME280;14312;52.614;13.496;2023-02-23T17:44:02;100492.31;;;12.06;69.63
26697;BME280;14312;52.614;13.496;2023-02-23T17:46:50;100498.72;;;12.05;69.69
26697;BME280;14312;52.614;13.496;2023-02-23T17:49:36;100498.16;;;12.03;69.78
26697;BME280;14312;52.614;13.496;2023-02-23T17:52:22;100492.25;;;12.01;69.78
26697;BME280;14312;52.614;13.496;2023-02-23T17:55:08;100497.59;;;12.01;69.99
26697;BME280;14312;52.614;13.496;2023-02-23T17:57:54;100492.53;;;12.00;69.96
26697;BME280;14312;52.614;13.496;2023-02-23T18:00:40;100494.41;;;11.99;70.18
26697;BME280;14312;52.614;13.496;2023-02-23T18:03:28;100490.09;;;11.98;70.54
26697;BME280;14312;52.614;13.496;2023-02-23T18:06:16;100489.53;;;11.96;70.27
26697;BME280;14312;52.614;13.496;2023-02-23T18:09:02;100489.53;;;11.96;70.42
26697;BME280;14312;52.614;13.496;2023-02-23T18:11:51;100489.53;;;11.96;70.49
26697;BME280;14312;52.614;13.496;2023-02-23T18:14:37;100484.72;;;11.93;70.50
26697;BME280;14312;52.614;13.496;2023-02-23T18:17:23;100478.88;;;11.96;70.34
26697;BME280;14312;52.614;13.496;2023-02-23T18:20:09;100478.31;;;11.94;70.62
26697;BME280;14312;52.614;13.496;2023-02-23T18:22:58;100477.25;;;11.95;70.51
26697;BME280;14312;52.614;13.496;2023-02-23T18:25:45;100474.56;;;11.95;70.60
26697;BME280;14312;52.614;13.496;2023-02-23T18:28:31;100477.25;;;11.95;70.56
26697;BME280;14312;52.614;13.496;2023-02-23T18:31:19;100477.25;;;11.95;70.60
26697;BME280;14312;52.614;13.496;2023-02-23T18:34:05;100474.56;;;11.95;70.71
26697;BME280;14312;52.614;13.496;2023-02-23T18:36:54;100475.63;;;11.94;70.80
26697;BME280;14312;52.614;13.496;2023-02-23T18:39:40;100470.81;;;11.91;70.81
26697;BME280;14312;52.614;13.496;2023-02-23T18:42:26;100467.09;;;11.92;70.85
26697;BME280;14312;52.614;13.496;2023-02-23T18:45:13;100476.16;;;11.91;70.92
26697;BME280;14312;52.614;13.496;2023-02-23T18:47:59;100470.00;;;11.91;70.86
26697;BME280;14312;52.614;13.496;2023-02-23T18:50:45;100473.72;;;11.90;71.03
26697;BME280;14312;52.614;13.496;2023-02-23T18:53:32;100483.59;;;11.89;70.99
26697;BME280;14312;52.614;13.496;2023-02-23T18:56:24;100480.94;;;11.89;71.00
26697;BME280;14312;52.614;13.496;2023-02-23T18:59:12;100480.38;;;11.87;71.01
26697;BME280;14312;52.614;13.496;2023-02-23T19:01:58;100476.66;;;11.88;71.00
26697;BME280;14312;52.614;13.496;2023-02-23T19:04:44;100469.69;;;11.87;70.90
26697;BME280;14312;52.614;13.496;2023-02-23T19:07:30;100473.44;;;11.86;71.24
26697;BME280;14312;52.614;13.496;2023-02-23T19:10:17;100472.88;;;11.84;71.20
26697;BME280;14312;52.614;13.496;2023-02-23T19:13:04;100476.34;;;11.85;70.94
26697;BME280;14312;52.614;13.496;2023-02-23T19:15:53;100461.63;;;11.82;71.20
26697;BME280;14312;52.614;13.496;2023-02-23T19:18:39;100457.91;;;11.83;71.24
26697;BME280;14312;52.614;13.496;2023-02-23T19:21:25;100458.97;;;11.82;71.32
26697;BME280;14312;52.614;13.496;2023-02-23T19:24:11;100457.34;;;11.81;71.33
26697;BME280;14312;52.614;13.496;2023-02-23T19:26:57;100456.00;;;11.79;71.28
26697;BME280;14312;52.614;13.496;2023-02-23T19:29:43;100464.81;;;11.79;71.26
26697;BME280;14312;52.614;13.496;2023-02-23T19:32:30;100464.28;;;11.77;71.27
26697;BME280;14312;52.614;13.496;2023-02-23T19:35:16;100458.38;;;11.75;71.42
26697;BME280;14312;52.614;13.496;2023-02-23T19:38:02;100455.69;;;11.75;71.29
26697;BME280;14312;52.614;13.496;2023-02-23T19:40:49;100456.75;;;11.74;71.68
26697;BME280;14312;52.614;13.496;2023-02-23T19:43:35;100452.44;;;11.73;71.46
26697;BME280;14312;52.614;13.496;2023-02-23T19:46:21;100456.19;;;11.72;71.57
26697;BME280;14312;52.614;13.496;2023-02-23T19:49:10;100454.56;;;11.71;71.69
26697;BME280;14312;52.614;13.496;2023-02-23T19:51:56;100459.91;;;11.71;71.30
26697;BME280;14312;52.614;13.496;2023-02-23T19:54:42;100452.94;;;11.70;71.53
26697;BME280;14312;52.614;13.496;2023-02-23T19:57:29;100461.19;;;11.68;71.55
26697;BME280;14312;52.614;13.496;2023-02-23T20:00:15;100461.19;;;11.68;71.43
26697;BME280;14312;52.614;13.496;2023-02-23T20:03:01;100456.34;;;11.65;71.50
26697;BME280;14312;52.614;13.496;2023-02-23T20:05:51;100456.06;;;11.62;71.13
26697;BME280;14312;52.614;13.496;2023-02-23T20:08:36;100467.22;;;11.59;71.12
26697;BME280;14312;52.614;13.496;2023-02-23T20:11:22;100457.56;;;11.53;71.01
26697;BME280;14312;52.614;13.496;2023-02-23T20:14:09;100465.03;;;11.51;71.21
26697;BME280;14312;52.614;13.496;2023-02-23T20:16:57;100469.75;;;11.44;70.72
26697;BME280;14312;52.614;13.496;2023-02-23T20:19:43;100469.66;;;11.38;70.80
26697;BME280;14312;52.614;13.496;2023-02-23T20:22:29;100470.66;;;11.32;70.97
26697;BME280;14312;52.614;13.496;2023-02-23T20:25:18;100471.66;;;11.26;70.88
26697;BME280;14312;52.614;13.496;2023-02-23T20:28:05;100464.41;;;11.22;70.87
26697;BME280;14312;52.614;13.496;2023-02-23T20:30:52;100464.34;;;11.17;71.04
26697;BME280;14312;52.614;13.496;2023-02-23T20:33:38;100467.75;;;11.12;70.86
26697;BME280;14312;52.614;13.496;2023-02-23T20:36:25;100458.09;;;11.06;71.09
26697;BME280;14312;52.614;13.496;2023-02-23T20:39:12;100462.03;;;11.04;71.08
26697;BME280;14312;52.614;13.496;2023-02-23T20:42:01;100459.06;;;11.00;71.30
26697;BME280;14312;52.614;13.496;2023-02-23T20:44:47;100458.75;;;10.96;71.10
26697;BME280;14312;52.614;13.496;2023-02-23T20:47:33;100455.78;;;10.93;71.26
26697;BME280;14312;52.614;13.496;2023-02-23T20:50:21;100455.22;;;10.91;71.34
26697;BME280;14312;52.614;13.496;2023-02-23T20:53:08;100446.66;;;10.89;71.36
26697;BME280;14312;52.614;13.496;2023-02-23T20:55:54;100446.34;;;10.85;71.60
26697;BME280;14312;52.614;13.496;2023-02-23T20:58:40;100444.16;;;10.82;71.63
26697;BME280;14312;52.614;13.496;2023-02-23T21:01:29;100443.34;;;10.82;71.48
26697;BME280;14312;52.614;13.496;2023-02-23T21:04:16;100448.16;;;10.80;71.57
26697;BME280;14312;52.614;13.496;2023-02-23T21:07:02;100438.78;;;10.77;71.56
26697;BME280;14312;52.614;13.496;2023-02-23T21:09:52;100447.00;;;10.76;71.72
26697;BME280;14312;52.614;13.496;2023-02-23T21:12:45;100443.78;;;10.74;71.57
26697;BME280;14312;52.614;13.496;2023-02-23T21:15:31;100443.78;;;10.74;71.57
26697;BME280;14312;52.614;13.496;2023-02-23T21:18:17;100444.03;;;10.72;71.61
26697;BME280;14312;52.614;13.496;2023-02-23T21:21:03;100434.44;;;10.71;71.51
26697;BME280;14312;52.614;13.496;2023-02-23T21:23:54;100441.03;;;10.69;71.60
26697;BME280;14312;52.614;13.496;2023-02-23T21:26:40;100441.03;;;10.69;71.65
26697;BME280;14312;52.614;13.496;2023-02-23T21:29:27;100433.28;;;10.67;71.65
26697;BME280;14312;52.614;13.496;2023-02-23T21:32:13;100436.22;;;10.66;71.74
26697;BME280;14312;52.614;13.496;2023-02-23T21:34:58;100431.94;;;10.65;71.73
26697;BME280;14312;52.614;13.496;2023-02-23T21:37:45;100427.66;;;10.64;71.79
26697;BME280;14312;52.614;13.496;2023-02-23T21:40:31;100425.22;;;10.62;71.45
26697;BME280;14312;52.614;13.496;2023-02-23T21:43:17;100424.41;;;10.62;71.49
26697;BME280;14312;52.614;13.496;2023-02-23T21:46:12;100426.50;;;10.59;72.02
26697;BME280;14312;52.614;13.496;2023-02-23T21:48:58;100423.31;;;10.57;71.76
26697;BME280;14312;52.614;13.496;2023-02-23T21:51:44;100419.03;;;10.56;71.69
26697;BME280;14312;52.614;13.496;2023-02-23T21:54:30;100416.38;;;10.56;71.82
26697;BME280;14312;52.614;13.496;2023-02-23T21:57:17;100413.69;;;10.56;71.81
26697;BME280;14312;52.614;13.496;2023-02-23T22:00:08;100409.41;;;10.55;71.79
26697;BME280;14312;52.614;13.496;2023-02-23T22:02:54;100413.13;;;10.54;71.64
26697;BME280;14312;52.614;13.496;2023-02-23T22:05:40;100402.47;;;10.54;71.91
26697;BME280;14312;52.614;13.496;2023-02-23T22:08:25;100401.66;;;10.54;71.74
26697;BME280;14312;52.614;13.496;2023-02-23T22:11:13;100403.53;;;10.53;71.69
26697;BME280;14312;52.614;13.496;2023-02-23T22:14:02;100402.72;;;10.53;71.94
26697;BME280;14312;52.614;13.496;2023-02-23T22:16:51;100395.75;;;10.52;71.72
26697;BME280;14312;52.614;13.496;2023-02-23T22:19:37;100400.31;;;10.51;71.90
26697;BME280;14312;52.614;13.496;2023-02-23T22:22:23;100396.03;;;10.50;71.84
26697;BME280;14312;52.614;13.496;2023-02-23T22:25:09;100399.75;;;10.49;71.89
26697;BME280;14312;52.614;13.496;2023-02-23T22:27:56;100391.19;;;10.47;71.85
26697;BME280;14312;52.614;13.496;2023-02-23T22:30:42;100385.28;;;10.45;71.84
26697;BME280;14312;52.614;13.496;2023-02-23T22:33:29;100389.81;;;10.45;72.00
26697;BME280;14312;52.614;13.496;2023-02-23T22:36:15;100390.63;;;10.45;71.89
26697;BME280;14312;52.614;13.496;2023-02-23T22:39:04;100386.38;;;10.44;71.94
26697;BME280;14312;52.614;13.496;2023-02-23T22:41:57;100379.41;;;10.43;71.88
26697;BME280;14312;52.614;13.496;2023-02-23T22:44:43;100383.13;;;10.42;71.92
26697;BME280;14312;52.614;13.496;2023-02-23T22:47:29;100377.00;;;10.42;72.00
26697;BME280;14312;52.614;13.496;2023-02-23T22:50:15;100376.19;;;10.41;71.79
26697;BME280;14312;52.614;13.496;2023-02-23T22:53:03;100363.91;;;10.40;71.96
26697;BME280;14312;52.614;13.496;2023-02-23T22:55:52;100370.28;;;10.39;72.01
26697;BME280;14312;52.614;13.496;2023-02-23T22:58:38;100364.41;;;10.37;71.95
26697;BME280;14312;52.614;13.496;2023-02-23T23:01:26;100367.09;;;10.37;71.75
26697;BME280;14312;52.614;13.496;2023-02-23T23:04:12;100361.19;;;10.35;71.97
26697;BME280;14312;52.614;13.496;2023-02-23T23:06:59;100359.56;;;10.34;71.86
26697;BME280;14312;52.614;13.496;2023-02-23T23:09:45;100357.97;;;10.33;72.16
26697;BME280;14312;52.614;13.496;2023-02-23T23:12:32;100357.97;;;10.33;72.12
26697;BME280;14312;52.614;13.496;2023-02-23T23:15:19;100353.69;;;10.32;71.89
26697;BME280;14312;52.614;13.496;2023-02-23T23:18:04;100351.00;;;10.32;72.11
26697;BME280;14312;52.614;13.496;2023-02-23T23:21:01;100349.41;;;10.31;72.07
26697;BME280;14312;52.614;13.496;2023-02-23T23:23:49;100344.06;;;10.31;72.26
26697;BME280;14312;52.614;13.496;2023-02-23T23:26:36;100344.88;;;10.32;72.21
26697;BME280;14312;52.614;13.496;2023-02-23T23:29:25;100348.34;;;10.32;72.25
26697;BME280;14312;52.614;13.496;2023-02-23T23:32:16;100344.06;;;10.31;72.14
26697;BME280;14312;52.614;13.496;2023-02-23T23:35:02;100342.44;;;10.30;72.30
26697;BME280;14312;52.614;13.496;2023-02-23T23:37:48;100339.00;;;10.30;72.06
26697;BME280;14312;52.614;13.496;2023-02-23T23:40:37;100346.19;;;10.29;72.16
26697;BME280;14312;52.614;13.496;2023-02-23T23:43:24;100341.91;;;10.28;72.20
26697;BME280;14312;52.614;13.496;2023-02-23T23:46:10;100337.63;;;10.27;72.02
26697;BME280;14312;52.614;13.496;2023-02-23T23:48:58;100339.72;;;10.25;72.20
26697;BME280;14312;52.614;13.496;2023-02-23T23:51:46;100338.91;;;10.25;72.32
26697;BME280;14312;52.614;13.496;2023-02-23T23:54:36;100331.16;;;10.23;72.33
26697;BME280;14312;52.614;13.496;2023-02-23T23:57:23;100328.50;;;10.23;72.16
